sensor_id;sensor_type;location;lat;lon;timestamp;temperature;humidity
17849;DHT22;9050;48.746;9.232;2023-03-01T00:01:01;-0.60;99.90
17849;DHT22;9050;48.746;9.232;2023-03-01T00:03:28;-0.60;99.90
17849;DHT22;9050;48.746;9.232;2023-03-01T00:05:55;-0.60;99.90
17849;DHT22;9050;48.746;9.232;2023-03-01T00:08:24;-0.60;99.90
17849;DHT22;9050;48.746;9.232;2023-03-01T00:11:00;-0.60;99.90
17849;DHT22;9050;48.746;9.232;2023-03-01T00:13:28;-0.60;99.90
17849;DHT22;9050;48.746;9.232;2023-03-01T00:15:55;-0.50;99.90
17849;DHT22;9050;48.746;9.232;2023-03-01T00:18:22;-0.60;99.90
17849;DHT22;9050;48.746;9.232;2023-03-01T00:20:52;-0.60;99.90
17849;DHT22;9050;48.746;9.232;2023-03-01T00:23:19;-0.70;99.90
17849;DHT22;9050;48.746;9.232;2023-03-01T00:25:48;-0.60;99.90
17849;DHT22;9050;48.746;9.232;2023-03-01T00:28:15;-0.60;99.90
17849;DHT22;9050;48.746;9.232;2023-03-01T00:30:42;-0.70;99.90
17849;DHT22;9050;48.746;9.232;2023-03-01T00:33:09;-0.70;99.90
17849;DHT22;9050;48.746;9.232;2023-03-01T00:35:36;-0.70;99.90
17849;DHT22;9050;48.746;9.232;2023-03-01T00:38:03;-0.70;99.90
17849;DHT22;9050;48.746;9.232;2023-03-01T00:40:33;-0.70;99.90
17849;DHT22;9050;48.746;9.232;2023-03-01T00:43:02;-0.80;99.90
17849;DHT22;9050;48.746;9.232;2023-03-01T00:45:30;-0.80;99.90
17849;DHT22;9050;48.746;9.232;2023-03-01T00:47:57;-0.90;99.90
17849;DHT22;9050;48.746;9.232;2023-03-01T00:50:24;-0.90;99.90
17849;DHT22;9050;48.746;9.232;2023-03-01T00:52:52;-0.90;99.90
17849;DHT22;9050;48.746;9.232;2023-03-01T00:55:19;-0.90;99.90
17849;DHT22;9050;48.746;9.232;2023-03-01T00:57:46;-0.90;99.90
17849;DHT22;9050;48.746;9.232;2023-03-01T01:00:15;-0.80;99.90
17849;DHT22;9050;48.746;9.232;2023-03-01T01:02:42;-0.80;99.90
17849;DHT22;9050;48.746;9.232;2023-03-01T01:05:10;-0.90;99.90
17849;DHT22;9050;48.746;9.232;2023-03-01T01:07:37;-0.90;99.90
17849;DHT22;9050;48.746;9.232;2023-03-01T01:10:04;-1.00;99.90
17849;DHT22;9050;48.746;9.232;2023-03-01T01:12:32;-1.00;99.90
17849;DHT22;9050;48.746;9.232;2023-03-01T01:14:59;-1.00;99.90
17849;DHT22;9050;48.746;9.232;2023-03-01T01:17:27;-1.10;99.90
17849;DHT22;9050;48.746;9.232;2023-03-01T01:19:54;-1.10;99.90
17849;DHT22;9050;48.746;9.232;2023-03-01T01:22:20;-1.20;99.90
17849;DHT22;9050;48.746;9.232;2023-03-01T01:24:47;-1.10;99.90
17849;DHT22;9050;48.746;9.232;2023-03-01T01:27:14;-1.10;99.90
17849;DHT22;9050;48.746;9.232;2023-03-01T01:29:41;-1.10;99.90
17849;DHT22;9050;48.746;9.232;2023-03-01T01:32:08;-1.00;99.90
17849;DHT22;9050;48.746;9.232;2023-03-01T01:34:36;-1.00;99.90
17849;DHT22;9050;48.746;9.232;2023-03-01T01:37:03;-1.00;99.90
17849;DHT22;9050;48.746;9.232;2023-03-01T01:39:33;-0.90;99.90
17849;DHT22;9050;48.746;9.232;2023-03-01T01:42:00;-0.90;99.90
17849;DHT22;9050;48.746;9.232;2023-03-01T01:44:28;-0.80;99.90
17849;DHT22;9050;48.746;9.232;2023-03-01T01:46:59;-0.80;99.90
17849;DHT22;9050;48.746;9.232;2023-03-01T01:49:31;-0.70;99.90
17849;DHT22;9050;48.746;9.232;2023-03-01T01:52:06;-0.70;99.90
17849;DHT22;9050;48.746;9.232;2023-03-01T01:54:40;-0.70;99.90
17849;DHT22;9050;48.746;9.232;2023-03-01T01:57:12;-0.70;99.90
17849;DHT22;9050;48.746;9.232;2023-03-01T01:59:44;-0.60;99.90
17849;DHT22;9050;48.746;9.232;2023-03-01T02:02:12;-0.60;99.90
17849;DHT22;9050;48.746;9.232;2023-03-01T02:04:40;-0.70;99.90
17849;DHT22;9050;48.746;9.232;2023-03-01T02:07:13;-0.70;99.90
17849;DHT22;9050;48.746;9.232;2023-03-01T02:09:42;-0.80;99.90
17849;DHT22;9050;48.746;9.232;2023-03-01T02:12:09;-0.60;99.90
17849;DHT22;9050;48.746;9.232;2023-03-01T02:14:36;-0.60;99.90
17849;DHT22;9050;48.746;9.232;2023-03-01T02:17:03;-0.70;99.90
17849;DHT22;9050;48.746;9.232;2023-03-01T02:19:43;-0.70;99.90
17849;DHT22;9050;48.746;9.232;2023-03-01T02:22:22;-0.70;99.90
17849;DHT22;9050;48.746;9.232;2023-03-01T02:25:02;-0.70;99.90
17849;DHT22;9050;48.746;9.232;2023-03-01T02:27:36;-0.50;99.90
17849;DHT22;9050;48.746;9.232;2023-03-01T02:30:07;-0.40;99.90
17849;DHT22;9050;48.746;9.232;2023-03-01T02:32:38;-0.30;99.90
17849;DHT22;9050;48.746;9.232;2023-03-01T02:35:09;-0.20;99.90
17849;DHT22;9050;48.746;9.232;2023-03-01T02:37:37;-0.30;99.90
17849;DHT22;9050;48.746;9.232;2023-03-01T02:40:09;-0.20;99.90
17849;DHT22;9050;48.746;9.232;2023-03-01T02:42:43;-0.20;99.90
17849;DHT22;9050;48.746;9.232;2023-03-01T02:45:13;-0.20;99.90
17849;DHT22;9050;48.746;9.232;2023-03-01T02:47:40;-0.20;99.90
17849;DHT22;9050;48.746;9.232;2023-03-01T02:50:19;-0.20;99.90
17849;DHT22;9050;48.746;9.232;2023-03-01T02:52:53;-0.20;99.90
17849;DHT22;9050;48.746;9.232;2023-03-01T02:55:23;-0.30;99.90
17849;DHT22;9050;48.746;9.232;2023-03-01T02:57:50;-0.20;99.90
17849;DHT22;9050;48.746;9.232;2023-03-01T03:00:21;-0.10;99.90
17849;DHT22;9050;48.746;9.232;2023-03-01T03:02:52;-0.10;99.90
17849;DHT22;9050;48.746;9.232;2023-03-01T03:05:21;-0.10;99.90
17849;DHT22;9050;48.746;9.232;2023-03-01T03:07:49;-0.10;99.90
17849;DHT22;9050;48.746;9.232;2023-03-01T03:10:19;-0.20;99.90
17849;DHT22;9050;48.746;9.232;2023-03-01T03:12:49;-0.20;99.90
17849;DHT22;9050;48.746;9.232;2023-03-01T03:15:18;-0.20;99.90
17849;DHT22;9050;48.746;9.232;2023-03-01T03:17:46;-0.10;99.90
17849;DHT22;9050;48.746;9.232;2023-03-01T03:20:17;0.00;99.90
17849;DHT22;9050;48.746;9.232;2023-03-01T03:22:46;-0.10;99.90
17849;DHT22;9050;48.746;9.232;2023-03-01T03:25:13;-0.10;99.90
17849;DHT22;9050;48.746;9.232;2023-03-01T03:27:41;0.00;99.90
17849;DHT22;9050;48.746;9.232;2023-03-01T03:30:13;0.00;99.90
17849;DHT22;9050;48.746;9.232;2023-03-01T03:32:43;0.00;99.90
17849;DHT22;9050;48.746;9.232;2023-03-01T03:35:18;-0.20;99.90
17849;DHT22;9050;48.746;9.232;2023-03-01T03:37:45;-0.30;99.90
17849;DHT22;9050;48.746;9.232;2023-03-01T03:40:34;-0.20;99.90
17849;DHT22;9050;48.746;9.232;2023-03-01T03:43:01;-0.10;99.90
17849;DHT22;9050;48.746;9.232;2023-03-01T03:45:28;-0.20;99.90
17849;DHT22;9050;48.746;9.232;2023-03-01T03:47:56;0.00;99.90
17849;DHT22;9050;48.746;9.232;2023-03-01T03:50:23;-0.10;99.90
17849;DHT22;9050;48.746;9.232;2023-03-01T03:52:50;0.00;99.90
17849;DHT22;9050;48.746;9.232;2023-03-01T03:55:17;-0.10;99.90
17849;DHT22;9050;48.746;9.232;2023-03-01T03:57:45;-0.20;99.90
17849;DHT22;9050;48.746;9.232;2023-03-01T04:00:18;-0.10;99.90
17849;DHT22;9050;48.746;9.232;2023-03-01T04:02:47;-0.10;99.90
17849;DHT22;9050;48.746;9.232;2023-03-01T04:05:18;-0.10;99.90
17849;DHT22;9050;48.746;9.232;2023-03-01T04:07:45;-0.10;99.90
17849;DHT22;9050;48.746;9.232;2023-03-01T04:10:14;-0.10;99.90
17849;DHT22;9050;48.746;9.232;2023-03-01T04:12:41;-0.10;99.90
17849;DHT22;9050;48.746;9.232;2023-03-01T04:15:10;-0.10;99.90
17849;DHT22;9050;48.746;9.232;2023-03-01T04:17:39;-0.20;99.90
17849;DHT22;9050;48.746;9.232;2023-03-01T04:20:08;-0.10;99.90
17849;DHT22;9050;48.746;9.232;2023-03-01T04:22:38;-0.10;99.90
17849;DHT22;9050;48.746;9.232;2023-03-01T04:25:06;-0.10;99.90
17849;DHT22;9050;48.746;9.232;2023-03-01T04:27:33;-0.10;99.90
17849;DHT22;9050;48.746;9.232;2023-03-01T04:30:00;-0.10;99.90
17849;DHT22;9050;48.746;9.232;2023-03-01T04:32:27;-0.20;99.90
17849;DHT22;9050;48.746;9.232;2023-03-01T04:34:54;-0.20;99.90
17849;DHT22;9050;48.746;9.232;2023-03-01T04:37:21;-0.10;99.90
17849;DHT22;9050;48.746;9.232;2023-03-01T04:39:50;-0.10;99.90
17849;DHT22;9050;48.746;9.232;2023-03-01T04:42:17;-0.10;99.90
17849;DHT22;9050;48.746;9.232;2023-03-01T04:44:44;0.00;99.90
17849;DHT22;9050;48.746;9.232;2023-03-01T04:47:12;0.10;99.90
17849;DHT22;9050;48.746;9.232;2023-03-01T04:49:39;0.00;99.90
17849;DHT22;9050;48.746;9.232;2023-03-01T04:52:06;0.00;99.90
17849;DHT22;9050;48.746;9.232;2023-03-01T04:54:34;0.10;99.90
17849;DHT22;9050;48.746;9.232;2023-03-01T04:57:03;0.00;99.90
17849;DHT22;9050;48.746;9.232;2023-03-01T04:59:29;-0.10;99.90
17849;DHT22;9050;48.746;9.232;2023-03-01T05:01:56;0.00;99.90
17849;DHT22;9050;48.746;9.232;2023-03-01T05:04:25;0.00;99.90
17849;DHT22;9050;48.746;9.232;2023-03-01T05:06:52;0.10;99.90
17849;DHT22;9050;48.746;9.232;2023-03-01T05:09:20;0.10;99.90
17849;DHT22;9050;48.746;9.232;2023-03-01T05:11:46;0.10;99.90
17849;DHT22;9050;48.746;9.232;2023-03-01T05:14:15;0.10;99.90
17849;DHT22;9050;48.746;9.232;2023-03-01T05:16:42;0.10;99.90
17849;DHT22;9050;48.746;9.232;2023-03-01T05:19:08;0.10;99.90
17849;DHT22;9050;48.746;9.232;2023-03-01T05:21:40;0.10;99.90
17849;DHT22;9050;48.746;9.232;2023-03-01T05:24:21;0.10;99.90
17849;DHT22;9050;48.746;9.232;2023-03-01T05:26:48;0.10;99.90
17849;DHT22;9050;48.746;9.232;2023-03-01T05:29:19;0.00;99.90
17849;DHT22;9050;48.746;9.232;2023-03-01T05:31:50;-0.10;99.90
17849;DHT22;9050;48.746;9.232;2023-03-01T05:34:18;0.00;99.90
17849;DHT22;9050;48.746;9.232;2023-03-01T05:36:48;0.10;99.90
17849;DHT22;9050;48.746;9.232;2023-03-01T05:39:16;0.00;99.90
17849;DHT22;9050;48.746;9.232;2023-03-01T05:41:43;0.00;99.90
17849;DHT22;9050;48.746;9.232;2023-03-01T05:44:10;0.10;99.90
17849;DHT22;9050;48.746;9.232;2023-03-01T05:46:39;0.10;99.90
17849;DHT22;9050;48.746;9.232;2023-03-01T05:49:05;0.00;99.90
17849;DHT22;9050;48.746;9.232;2023-03-01T05:51:32;0.10;99.90
17849;DHT22;9050;48.746;9.232;2023-03-01T05:54:00;0.00;99.90
17849;DHT22;9050;48.746;9.232;2023-03-01T05:56:26;0.00;99.90
17849;DHT22;9050;48.746;9.232;2023-03-01T05:58:54;0.00;99.90
17849;DHT22;9050;48.746;9.232;2023-03-01T06:01:21;-0.10;99.90
17849;DHT22;9050;48.746;9.232;2023-03-01T06:03:49;-0.20;99.90
17849;DHT22;9050;48.746;9.232;2023-03-01T06:06:16;0.00;99.90
17849;DHT22;9050;48.746;9.232;2023-03-01T06:08:43;0.00;99.90
17849;DHT22;9050;48.746;9.232;2023-03-01T06:11:10;0.10;99.90
17849;DHT22;9050;48.746;9.232;2023-03-01T06:13:37;0.00;99.90
17849;DHT22;9050;48.746;9.232;2023-03-01T06:16:05;0.00;99.90
17849;DHT22;9050;48.746;9.232;2023-03-01T06:18:32;-0.10;99.90
17849;DHT22;9050;48.746;9.232;2023-03-01T06:21:00;-0.10;99.90
17849;DHT22;9050;48.746;9.232;2023-03-01T06:23:27;-0.10;99.90
17849;DHT22;9050;48.746;9.232;2023-03-01T06:25:54;0.00;99.90
17849;DHT22;9050;48.746;9.232;2023-03-01T06:28:21;0.10;99.90
17849;DHT22;9050;48.746;9.232;2023-03-01T06:30:48;0.20;99.90
17849;DHT22;9050;48.746;9.232;2023-03-01T06:33:17;0.20;99.90
17849;DHT22;9050;48.746;9.232;2023-03-01T06:35:45;0.30;99.90
17849;DHT22;9050;48.746;9.232;2023-03-01T06:38:14;0.30;99.90
17849;DHT22;9050;48.746;9.232;2023-03-01T06:40:42;0.30;99.90
17849;DHT22;9050;48.746;9.232;2023-03-01T06:43:09;0.50;99.90
17849;DHT22;9050;48.746;9.232;2023-03-01T06:45:37;0.90;99.90
17849;DHT22;9050;48.746;9.232;2023-03-01T06:48:04;1.30;99.90
17849;DHT22;9050;48.746;9.232;2023-03-01T06:50:31;1.60;99.90
17849;DHT22;9050;48.746;9.232;2023-03-01T06:52:58;1.80;99.90
17849;DHT22;9050;48.746;9.232;2023-03-01T06:55:26;1.90;99.90
17849;DHT22;9050;48.746;9.232;2023-03-01T06:57:54;1.90;99.90
17849;DHT22;9050;48.746;9.232;2023-03-01T07:00:22;2.10;99.90
17849;DHT22;9050;48.746;9.232;2023-03-01T07:02:49;2.40;99.90
17849;DHT22;9050;48.746;9.232;2023-03-01T07:05:16;2.80;99.90
17849;DHT22;9050;48.746;9.232;2023-03-01T07:07:44;2.60;99.90
17849;DHT22;9050;48.746;9.232;2023-03-01T07:10:11;2.70;99.90
17849;DHT22;9050;48.746;9.232;2023-03-01T07:12:39;2.90;99.90
17849;DHT22;9050;48.746;9.232;2023-03-01T07:15:09;2.80;99.90
17849;DHT22;9050;48.746;9.232;2023-03-01T07:17:36;3.20;99.90
17849;DHT22;9050;48.746;9.232;2023-03-01T07:20:04;3.70;99.90
17849;DHT22;9050;48.746;9.232;2023-03-01T07:22:30;4.20;99.90
17849;DHT22;9050;48.746;9.232;2023-03-01T07:24:57;4.30;99.90
17849;DHT22;9050;48.746;9.232;2023-03-01T07:27:24;4.10;99.90
17849;DHT22;9050;48.746;9.232;2023-03-01T07:29:53;4.10;99.90
17849;DHT22;9050;48.746;9.232;2023-03-01T07:32:19;4.40;99.90
17849;DHT22;9050;48.746;9.232;2023-03-01T07:34:46;4.80;99.90
17849;DHT22;9050;48.746;9.232;2023-03-01T07:37:13;6.00;99.90
17849;DHT22;9050;48.746;9.232;2023-03-01T07:39:40;6.50;99.90
17849;DHT22;9050;48.746;9.232;2023-03-01T07:42:07;6.10;99.90
17849;DHT22;9050;48.746;9.232;2023-03-01T07:44:34;6.20;99.90
17849;DHT22;9050;48.746;9.232;2023-03-01T07:47:03;6.60;99.90
17849;DHT22;9050;48.746;9.232;2023-03-01T07:49:30;7.40;99.90
17849;DHT22;9050;48.746;9.232;2023-03-01T07:51:57;7.70;99.90
17849;DHT22;9050;48.746;9.232;2023-03-01T07:54:24;8.40;99.90
17849;DHT22;9050;48.746;9.232;2023-03-01T07:56:51;7.20;99.90
17849;DHT22;9050;48.746;9.232;2023-03-01T07:59:20;7.10;99.90
17849;DHT22;9050;48.746;9.232;2023-03-01T08:01:49;6.00;99.90
17849;DHT22;9050;48.746;9.232;2023-03-01T08:04:17;5.60;99.90
17849;DHT22;9050;48.746;9.232;2023-03-01T08:06:44;4.30;99.90
17849;DHT22;9050;48.746;9.232;2023-03-01T08:09:11;3.00;99.90
17849;DHT22;9050;48.746;9.232;2023-03-01T08:11:38;2.10;99.90
17849;DHT22;9050;48.746;9.232;2023-03-01T08:14:06;1.70;99.90
17849;DHT22;9050;48.746;9.232;2023-03-01T08:16:33;1.80;99.90
17849;DHT22;9050;48.746;9.232;2023-03-01T08:19:04;1.60;99.90
17849;DHT22;9050;48.746;9.232;2023-03-01T08:21:32;1.40;99.90
17849;DHT22;9050;48.746;9.232;2023-03-01T08:24:00;1.30;99.90
17849;DHT22;9050;48.746;9.232;2023-03-01T08:26:27;1.40;99.90
17849;DHT22;9050;48.746;9.232;2023-03-01T08:28:54;1.40;99.90
17849;DHT22;9050;48.746;9.232;2023-03-01T08:31:24;1.50;99.90
17849;DHT22;9050;48.746;9.232;2023-03-01T08:33:53;1.50;99.90
17849;DHT22;9050;48.746;9.232;2023-03-01T08:36:22;1.40;99.90
17849;DHT22;9050;48.746;9.232;2023-03-01T08:38:50;1.40;99.90
17849;DHT22;9050;48.746;9.232;2023-03-01T08:41:17;1.50;99.90
17849;DHT22;9050;48.746;9.232;2023-03-01T08:43:44;1.50;99.90
17849;DHT22;9050;48.746;9.232;2023-03-01T08:46:12;1.40;99.90
17849;DHT22;9050;48.746;9.232;2023-03-01T08:48:39;1.40;99.90
17849;DHT22;9050;48.746;9.232;2023-03-01T08:51:09;1.50;99.90
17849;DHT22;9050;48.746;9.232;2023-03-01T08:53:36;1.60;99.90
17849;DHT22;9050;48.746;9.232;2023-03-01T08:56:04;1.80;99.90
17849;DHT22;9050;48.746;9.232;2023-03-01T08:58:32;1.90;99.90
17849;DHT22;9050;48.746;9.232;2023-03-01T09:00:58;2.00;99.90
17849;DHT22;9050;48.746;9.232;2023-03-01T09:03:26;2.00;99.90
17849;DHT22;9050;48.746;9.232;2023-03-01T09:05:53;2.10;99.90
17849;DHT22;9050;48.746;9.232;2023-03-01T09:08:20;2.10;99.90
17849;DHT22;9050;48.746;9.232;2023-03-01T09:10:46;2.10;99.90
17849;DHT22;9050;48.746;9.232;2023-03-01T09:13:15;2.10;99.90
17849;DHT22;9050;48.746;9.232;2023-03-01T09:15:41;2.20;99.90
17849;DHT22;9050;48.746;9.232;2023-03-01T09:18:08;2.10;99.90
17849;DHT22;9050;48.746;9.232;2023-03-01T09:20:35;2.10;99.90
17849;DHT22;9050;48.746;9.232;2023-03-01T09:23:02;2.30;99.90
17849;DHT22;9050;48.746;9.232;2023-03-01T09:25:29;2.40;99.90
17849;DHT22;9050;48.746;9.232;2023-03-01T09:27:56;2.40;99.90
17849;DHT22;9050;48.746;9.232;2023-03-01T09:30:24;2.30;99.90
17849;DHT22;9050;48.746;9.232;2023-03-01T09:32:51;2.30;99.90
17849;DHT22;9050;48.746;9.232;2023-03-01T09:35:18;2.40;99.90
17849;DHT22;9050;48.746;9.232;2023-03-01T09:37:45;2.40;99.90
17849;DHT22;9050;48.746;9.232;2023-03-01T09:40:15;2.40;99.90
17849;DHT22;9050;48.746;9.232;2023-03-01T09:42:48;2.50;99.90
17849;DHT22;9050;48.746;9.232;2023-03-01T09:45:27;2.60;99.90
17849;DHT22;9050;48.746;9.232;2023-03-01T09:47:55;2.70;99.90
17849;DHT22;9050;48.746;9.232;2023-03-01T09:50:23;2.80;99.90
17849;DHT22;9050;48.746;9.232;2023-03-01T09:53:00;3.00;99.90
17849;DHT22;9050;48.746;9.232;2023-03-01T09:55:30;3.00;99.90
17849;DHT22;9050;48.746;9.232;2023-03-01T09:58:04;2.90;99.90
17849;DHT22;9050;48.746;9.232;2023-03-01T10:00:39;3.00;99.90
17849;DHT22;9050;48.746;9.232;2023-03-01T10:03:16;3.10;99.90
17849;DHT22;9050;48.746;9.232;2023-03-01T10:05:50;3.20;99.90
17849;DHT22;9050;48.746;9.232;2023-03-01T10:08:31;3.20;99.90
17849;DHT22;9050;48.746;9.232;2023-03-01T10:11:03;3.20;99.90
17849;DHT22;9050;48.746;9.232;2023-03-01T10:13:37;3.20;99.90
17849;DHT22;9050;48.746;9.232;2023-03-01T10:16:14;3.30;99.90
17849;DHT22;9050;48.746;9.232;2023-03-01T10:18:44;3.40;99.90
17849;DHT22;9050;48.746;9.232;2023-03-01T10:21:15;3.60;99.90
17849;DHT22;9050;48.746;9.232;2023-03-01T10:23:43;3.50;99.90
17849;DHT22;9050;48.746;9.232;2023-03-01T10:26:27;3.60;99.90
17849;DHT22;9050;48.746;9.232;2023-03-01T10:29:02;3.50;99.90
17849;DHT22;9050;48.746;9.232;2023-03-01T10:31:38;3.70;99.90
17849;DHT22;9050;48.746;9.232;2023-03-01T10:34:11;3.70;99.90
17849;DHT22;9050;48.746;9.232;2023-03-01T10:36:39;3.80;99.90
17849;DHT22;9050;48.746;9.232;2023-03-01T10:39:12;3.80;99.90
17849;DHT22;9050;48.746;9.232;2023-03-01T10:41:53;3.80;99.90
17849;DHT22;9050;48.746;9.232;2023-03-01T10:44:36;3.90;99.90
17849;DHT22;9050;48.746;9.232;2023-03-01T10:47:04;3.90;99.90
17849;DHT22;9050;48.746;9.232;2023-03-01T10:49:32;4.00;99.90
17849;DHT22;9050;48.746;9.232;2023-03-01T10:52:11;4.00;99.90
17849;DHT22;9050;48.746;9.232;2023-03-01T10:54:52;4.00;99.90
17849;DHT22;9050;48.746;9.232;2023-03-01T10:57:33;4.10;99.90
17849;DHT22;9050;48.746;9.232;2023-03-01T11:00:19;4.20;99.90
17849;DHT22;9050;48.746;9.232;2023-03-01T11:02:50;4.20;99.90
17849;DHT22;9050;48.746;9.232;2023-03-01T11:05:21;4.30;99.90
17849;DHT22;9050;48.746;9.232;2023-03-01T11:07:51;4.30;99.90
17849;DHT22;9050;48.746;9.232;2023-03-01T11:10:21;4.50;99.90
17849;DHT22;9050;48.746;9.232;2023-03-01T11:12:48;4.60;99.90
17849;DHT22;9050;48.746;9.232;2023-03-01T11:15:26;4.60;99.90
17849;DHT22;9050;48.746;9.232;2023-03-01T11:17:56;4.70;99.90
17849;DHT22;9050;48.746;9.232;2023-03-01T11:20:30;4.70;99.90
17849;DHT22;9050;48.746;9.232;2023-03-01T11:23:00;4.80;99.90
17849;DHT22;9050;48.746;9.232;2023-03-01T11:25:33;4.80;99.90
17849;DHT22;9050;48.746;9.232;2023-03-01T11:28:03;4.70;99.90
17849;DHT22;9050;48.746;9.232;2023-03-01T11:30:34;4.70;99.90
17849;DHT22;9050;48.746;9.232;2023-03-01T11:33:17;4.50;99.90
17849;DHT22;9050;48.746;9.232;2023-03-01T11:35:50;4.70;99.90
17849;DHT22;9050;48.746;9.232;2023-03-01T11:38:22;4.90;99.90
17849;DHT22;9050;48.746;9.232;2023-03-01T11:40:54;4.90;99.90
17849;DHT22;9050;48.746;9.232;2023-03-01T11:43:31;5.00;99.90
17849;DHT22;9050;48.746;9.232;2023-03-01T11:46:31;5.00;99.90
17849;DHT22;9050;48.746;9.232;2023-03-01T11:49:16;5.00;99.90
17849;DHT22;9050;48.746;9.232;2023-03-01T11:51:55;5.00;99.90
17849;DHT22;9050;48.746;9.232;2023-03-01T11:54:37;5.00;99.90
17849;DHT22;9050;48.746;9.232;2023-03-01T11:57:17;4.90;99.90
17849;DHT22;9050;48.746;9.232;2023-03-01T12:00:14;4.90;99.90
17849;DHT22;9050;48.746;9.232;2023-03-01T12:03:13;5.10;99.90
17849;DHT22;9050;48.746;9.232;2023-03-01T12:05:56;5.20;99.90
17849;DHT22;9050;48.746;9.232;2023-03-01T12:08:35;5.30;99.90
17849;DHT22;9050;48.746;9.232;2023-03-01T12:11:13;5.40;99.90
17849;DHT22;9050;48.746;9.232;2023-03-01T12:14:02;5.50;99.90
17849;DHT22;9050;48.746;9.232;2023-03-01T12:19:43;5.70;99.90
17849;DHT22;9050;48.746;9.232;2023-03-01T12:22:28;5.70;99.90
17849;DHT22;9050;48.746;9.232;2023-03-01T12:27:56;6.00;99.90
17849;DHT22;9050;48.746;9.232;2023-03-01T12:30:38;6.00;99.90
17849;DHT22;9050;48.746;9.232;2023-03-01T12:33:17;6.10;99.90
17849;DHT22;9050;48.746;9.232;2023-03-01T12:38:40;6.00;99.90
17849;DHT22;9050;48.746;9.232;2023-03-01T12:44:09;6.20;99.90
17849;DHT22;9050;48.746;9.232;2023-03-01T12:46:47;6.10;99.90
17849;DHT22;9050;48.746;9.232;2023-03-01T12:49:21;6.10;99.90
17849;DHT22;9050;48.746;9.232;2023-03-01T12:51:55;6.20;99.90
17849;DHT22;9050;48.746;9.232;2023-03-01T12:54:27;6.20;99.90
17849;DHT22;9050;48.746;9.232;2023-03-01T12:56:55;6.30;99.90
17849;DHT22;9050;48.746;9.232;2023-03-01T12:59:26;6.30;99.90
17849;DHT22;9050;48.746;9.232;2023-03-01T13:02:03;6.30;99.90
17849;DHT22;9050;48.746;9.232;2023-03-01T13:04:40;6.20;99.90
17849;DHT22;9050;48.746;9.232;2023-03-01T13:07:25;6.30;99.90
17849;DHT22;9050;48.746;9.232;2023-03-01T13:13:02;6.30;99.90
17849;DHT22;9050;48.746;9.232;2023-03-01T13:15:34;6.40;99.90
17849;DHT22;9050;48.746;9.232;2023-03-01T13:18:03;6.40;99.90
17849;DHT22;9050;48.746;9.232;2023-03-01T13:20:34;6.40;99.90
17849;DHT22;9050;48.746;9.232;2023-03-01T13:23:07;6.40;99.90
17849;DHT22;9050;48.746;9.232;2023-03-01T13:26:00;6.50;99.90
17849;DHT22;9050;48.746;9.232;2023-03-01T13:28:55;6.60;99.90
17849;DHT22;9050;48.746;9.232;2023-03-01T13:31:58;6.60;99.90
17849;DHT22;9050;48.746;9.232;2023-03-01T13:34:56;6.60;99.90
17849;DHT22;9050;48.746;9.232;2023-03-01T13:37:31;6.70;99.90
17849;DHT22;9050;48.746;9.232;2023-03-01T13:40:01;6.80;99.90
17849;DHT22;9050;48.746;9.232;2023-03-01T13:42:41;6.70;99.90
17849;DHT22;9050;48.746;9.232;2023-03-01T13:45:18;6.80;99.90
17849;DHT22;9050;48.746;9.232;2023-03-01T13:47:49;6.90;99.90
17849;DHT22;9050;48.746;9.232;2023-03-01T13:50:23;6.90;99.90
17849;DHT22;9050;48.746;9.232;2023-03-01T13:52:54;7.00;99.90
17849;DHT22;9050;48.746;9.232;2023-03-01T13:55:36;7.00;99.90
17849;DHT22;9050;48.746;9.232;2023-03-01T13:58:16;7.10;99.90
17849;DHT22;9050;48.746;9.232;2023-03-01T14:00:45;7.20;99.90
17849;DHT22;9050;48.746;9.232;2023-03-01T14:03:14;7.20;99.90
17849;DHT22;9050;48.746;9.232;2023-03-01T14:05:43;7.40;99.90
17849;DHT22;9050;48.746;9.232;2023-03-01T14:08:20;7.20;99.90
17849;DHT22;9050;48.746;9.232;2023-03-01T14:11:00;7.10;99.90
17849;DHT22;9050;48.746;9.232;2023-03-01T14:13:41;6.90;99.90
17849;DHT22;9050;48.746;9.232;2023-03-01T14:16:24;6.80;99.90
17849;DHT22;9050;48.746;9.232;2023-03-01T14:19:06;6.70;99.90
17849;DHT22;9050;48.746;9.232;2023-03-01T14:21:36;6.80;99.90
17849;DHT22;9050;48.746;9.232;2023-03-01T14:24:04;6.70;99.90
17849;DHT22;9050;48.746;9.232;2023-03-01T14:26:32;6.60;99.90
17849;DHT22;9050;48.746;9.232;2023-03-01T14:29:01;6.50;99.90
17849;DHT22;9050;48.746;9.232;2023-03-01T14:31:38;6.60;99.90
17849;DHT22;9050;48.746;9.232;2023-03-01T14:34:19;6.70;99.90
17849;DHT22;9050;48.746;9.232;2023-03-01T14:36:46;6.80;99.90
17849;DHT22;9050;48.746;9.232;2023-03-01T14:39:18;6.80;99.90
17849;DHT22;9050;48.746;9.232;2023-03-01T14:41:46;6.90;99.90
17849;DHT22;9050;48.746;9.232;2023-03-01T14:44:18;6.90;99.90
17849;DHT22;9050;48.746;9.232;2023-03-01T14:46:52;6.90;99.90
17849;DHT22;9050;48.746;9.232;2023-03-01T14:49:22;7.00;99.90
17849;DHT22;9050;48.746;9.232;2023-03-01T14:51:53;6.90;99.90
17849;DHT22;9050;48.746;9.232;2023-03-01T14:54:23;6.90;99.90
17849;DHT22;9050;48.746;9.232;2023-03-01T14:56:52;6.80;99.90
17849;DHT22;9050;48.746;9.232;2023-03-01T14:59:22;6.90;99.90
17849;DHT22;9050;48.746;9.232;2023-03-01T15:01:51;6.90;99.90
17849;DHT22;9050;48.746;9.232;2023-03-01T15:04:18;6.90;99.90
17849;DHT22;9050;48.746;9.232;2023-03-01T15:06:47;7.00;99.90
17849;DHT22;9050;48.746;9.232;2023-03-01T15:09:16;7.00;99.90
17849;DHT22;9050;48.746;9.232;2023-03-01T15:11:44;7.00;99.90
17849;DHT22;9050;48.746;9.232;2023-03-01T15:14:38;7.00;99.90
17849;DHT22;9050;48.746;9.232;2023-03-01T15:17:19;7.00;99.90
17849;DHT22;9050;48.746;9.232;2023-03-01T15:19:47;7.00;99.90
17849;DHT22;9050;48.746;9.232;2023-03-01T15:22:15;7.00;99.90
17849;DHT22;9050;48.746;9.232;2023-03-01T15:24:46;7.00;99.90
17849;DHT22;9050;48.746;9.232;2023-03-01T15:27:16;7.10;99.90
17849;DHT22;9050;48.746;9.232;2023-03-01T15:29:50;7.10;99.90
17849;DHT22;9050;48.746;9.232;2023-03-01T15:32:27;7.10;99.90
17849;DHT22;9050;48.746;9.232;2023-03-01T15:34:58;7.00;99.90
17849;DHT22;9050;48.746;9.232;2023-03-01T15:37:40;6.90;99.90
17849;DHT22;9050;48.746;9.232;2023-03-01T15:40:20;6.90;99.90
17849;DHT22;9050;48.746;9.232;2023-03-01T15:42:50;6.80;99.90
17849;DHT22;9050;48.746;9.232;2023-03-01T15:45:26;6.80;99.90
17849;DHT22;9050;48.746;9.232;2023-03-01T15:47:55;6.80;99.90
17849;DHT22;9050;48.746;9.232;2023-03-01T15:50:26;6.80;99.90
17849;DHT22;9050;48.746;9.232;2023-03-01T15:52:55;6.80;99.90
17849;DHT22;9050;48.746;9.232;2023-03-01T15:55:24;6.80;99.90
17849;DHT22;9050;48.746;9.232;2023-03-01T15:57:58;6.70;99.90
17849;DHT22;9050;48.746;9.232;2023-03-01T16:00:28;6.70;99.90
17849;DHT22;9050;48.746;9.232;2023-03-01T16:02:56;6.70;99.90
17849;DHT22;9050;48.746;9.232;2023-03-01T16:05:24;6.60;99.90
17849;DHT22;9050;48.746;9.232;2023-03-01T16:07:53;6.60;99.90
17849;DHT22;9050;48.746;9.232;2023-03-01T16:10:20;6.50;99.90
17849;DHT22;9050;48.746;9.232;2023-03-01T16:12:47;6.40;99.90
17849;DHT22;9050;48.746;9.232;2023-03-01T16:15:17;6.40;99.90
17849;DHT22;9050;48.746;9.232;2023-03-01T16:17:46;6.30;99.90
17849;DHT22;9050;48.746;9.232;2023-03-01T16:20:13;6.20;99.90
17849;DHT22;9050;48.746;9.232;2023-03-01T16:22:41;6.10;99.90
17849;DHT22;9050;48.746;9.232;2023-03-01T16:25:09;6.10;99.90
17849;DHT22;9050;48.746;9.232;2023-03-01T16:27:37;6.00;99.90
17849;DHT22;9050;48.746;9.232;2023-03-01T16:30:05;6.00;99.90
17849;DHT22;9050;48.746;9.232;2023-03-01T16:32:32;6.00;99.90
17849;DHT22;9050;48.746;9.232;2023-03-01T16:35:00;5.90;99.90